Terminal Aerodrome Forecast
Issued by NWS

Home | Current Version | Previous Version | Text Only | Print | Product List | Glossary On
Versions: 1 2 3 4 5 6 7 8 9 10 11 12 13 14 15 16 17 18 19 20 21 22 23 24 25 26 27 28 29 30 31 32 33 34 35 36 37 38 39 40 41 42 43 44 45 46
000
FTUS44 KHGX 030524
TAFSGR
TAF
KSGR 030524Z 0306/0406 VRB03KT 1/2SM FG OVC002
     FM030800 VRB03KT 1/4SM FG OVC001
     FM031600 15007KT 4SM BR OVC004
     FM031800 16013KT P6SM SCT007 OVC011
     FM032100 17012KT P6SM SCT015 OVC025
     FM040300 15009KT 6SM BR OVC009=

USA.gov is the U.S. government's official web portal to all federal, state and local government web resources and services.